Time;durP1;ratioP1;P1;durP2;ratioP2;P2;SDS_P1;SDS_P2;PMS_P1;PMS_P2;Temp;Humidity;BMP_temperature;BMP_pressure;BME280_temperature;BME280_humidity;BME280_pressure;Samples;Min_cycle;Max_cycle;Signal;HPM_P1;HPM_P2
2024/04/16 14:38:43;;;;;;;1.40;0.37;;;;;;;;;;5401163;26;20421;-80
2024/04/16 14:41:11;;;;;;;0.77;0.40;;;;;;;;;;5406310;26;20006;-74
2024/04/16 14:43:37;;;;;;;4.00;0.20;;;;;;;;;;5445485;26;19996;-74
2024/04/16 14:46:04;;;;;;;0.30;0.23;;;;;;;;;;5410606;26;19988;-77
2024/04/16 14:48:30;;;;;;;1.43;0.20;;;;;;;;;;5411568;26;20045;-74
2024/04/16 14:50:58;;;;;;;0.37;0.20;;;;;;;;;;5400901;26;20016;-74
2024/04/16 14:53:24;;;;;;;0.40;0.30;;;;;;;;;;5405506;26;20039;-74
2024/04/16 14:55:51;;;;;;;1.27;0.40;;;;;;;;;;5414524;26;19993;-73
2024/04/16 14:58:16;;;;;;;0.60;0.33;;;;;;;;;;5412138;26;19992;-74
2024/04/16 15:00:43;;;;;;;0.47;0.30;;;;;;;;;;5444618;26;20043;-75
2024/04/16 15:03:09;;;;;;;0.57;0.30;;;;;;;;;;5411465;26;20016;-74
2024/04/16 15:05:35;;;;;;;0.93;0.40;;;;;;;;;;5412959;26;20044;-74
2024/04/16 15:08:01;;;;;;;1.80;0.50;;;;;;;;;;5410847;26;20046;-75
2024/04/16 15:10:29;;;;;;;1.43;0.53;;;;;;;;;;5404818;26;20004;-74
2024/04/16 15:12:55;;;;;;;0.60;0.40;;;;;;;;;;5443566;25;19996;-74
2024/04/16 15:15:20;;;;;;;3.73;0.30;;;;;;;;;;5408677;26;19993;-73
2024/04/16 15:17:46;;;;;;;2.77;0.70;;;;;;;;;;5412800;26;20007;-77
2024/04/16 15:20:13;;;;;;;2.37;0.83;;;;;;;;;;5408158;26;19999;-72
2024/04/16 15:22:38;;;;;;;1.93;0.83;;;;;;;;;;5390208;26;20038;-77
2024/04/16 15:25:05;;;;;;;1.97;0.70;;;;;;;;;;5404377;26;20783;-78
2024/04/16 15:27:31;;;;;;;1.50;0.73;;;;;;;;;;5400733;26;20432;-75
2024/04/16 15:29:57;;;;;;;1.47;0.50;;;;;;;;;;5410594;26;20055;-73
2024/04/16 15:32:23;;;;;;;2.43;0.40;;;;;;;;;;5412026;26;19996;-74
2024/04/16 15:34:49;;;;;;;3.03;0.50;;;;;;;;;;5410630;26;19993;-74
2024/04/16 15:42:06;;;;;;;3.67;1.00;;;;;;;;;;5635683;21;20016;-75
2024/04/16 15:44:12;;;;;;;0.97;0.70;;;;;;;;;;5418783;26;19991;-74
2024/04/16 15:50:53;;;;;;;1.80;1.20;;;;;;;;;;5196218;27;20008;-79
2024/04/16 15:53:19;;;;;;;2.58;1.23;;;;;;;;;;5195889;26;20016;-76
2024/04/16 15:55:45;;;;;;;2.53;1.20;;;;;;;;;;5330051;26;20002;-78
2024/04/16 15:58:15;;;;;;;3.90;1.20;;;;;;;;;;5300838;26;20005;-77
2024/04/16 16:00:44;;;;;;;3.17;1.03;;;;;;;;;;5335555;26;19990;-74
2024/04/16 16:03:13;;;;;;;1.53;1.20;;;;;;;;;;5303041;26;20115;-75
2024/04/16 16:08:49;;;;;;;2.67;0.98;;;;;;;;;;5332106;26;20109;-75
2024/04/16 16:11:14;;;;;;;;;;;;;;;;;;5307961;26;19997;-77
2024/04/16 16:13:41;;;;;;;2.07;1.00;;;;;;;;;;5330623;26;19980;-77
2024/04/16 16:16:12;;;;;;;1.83;0.87;;;;;;;;;;5295322;26;20005;-77
2024/04/16 16:18:41;;;;;;;4.57;1.20;;;;;;;;;;5303261;26;20009;-79
2024/04/16 16:21:08;;;;;;;3.47;1.43;;;;;;;;;;5302558;26;20045;-76
2024/04/16 16:23:34;;;;;;;3.73;1.43;;;;;;;;;;5332532;26;20007;-77
2024/04/16 16:26:08;;;;;;;4.97;1.77;;;;;;;;;;5424494;26;19988;-77
2024/04/16 16:28:37;;;;;;;3.43;1.60;;;;;;;;;;5432939;26;20327;-77
2024/04/16 16:31:13;;;;;;;;;;;;;;;;;;;;;
2024/04/16 16:33:50;;;;;;;6.83;1.30;;;;;;;;;;5551570;21;20000;-79
2024/04/16 16:36:19;;;;;;;6.53;1.40;;;;;;;;;;5381914;26;19989;-77
2024/04/16 16:38:45;;;;;;;3.53;1.23;;;;;;;;;;5372961;26;20003;-78
2024/04/16 16:41:11;;;;;;;2.57;1.10;;;;;;;;;;5374919;26;19988;-78
2024/04/16 16:43:37;;;;;;;2.33;1.00;;;;;;;;;;5410054;26;20012;-79
2024/04/16 16:46:06;;;;;;;0.73;0.47;;;;;;;;;;5379663;26;19992;-79
2024/04/16 17:09:26;;;;;;;3.33;0.70;;;;;;;;;;5922099;21;20034;-80
2024/04/16 17:11:55;;;;;;;1.73;0.80;;;;;;;;;;5409198;26;19980;-79
2024/04/16 17:14:27;;;;;;;4.07;0.60;;;;;;;;;;5421590;26;20003;-78
2024/04/16 17:16:55;;;;;;;1.10;0.70;;;;;;;;;;5429443;26;20003;-79
2024/04/16 17:19:23;;;;;;;1.93;0.90;;;;;;;;;;5387347;26;19999;-79
2024/04/16 17:21:52;;;;;;;6.93;1.37;;;;;;;;;;5428448;26;20009;-78
2024/04/16 17:24:20;;;;;;;5.33;0.63;;;;;;;;;;5399909;26;19995;-78
2024/04/16 17:26:46;;;;;;;1.57;0.70;;;;;;;;;;5394737;26;20019;-78
2024/04/16 17:29:21;;;;;;;5.57;0.67;;;;;;;;;;5389601;26;20008;-78
2024/04/16 17:31:48;;;;;;;1.50;0.47;;;;;;;;;;5367523;21;20005;-77
2024/04/16 17:34:14;;;;;;;2.63;0.77;;;;;;;;;;5325847;26;19994;-77
2024/04/16 17:36:43;;;;;;;0.63;0.40;;;;;;;;;;5312659;26;20013;-78
2024/04/16 17:39:11;;;;;;;1.70;0.60;;;;;;;;;;5325647;26;20061;-78
2024/04/16 17:41:37;;;;;;;0.63;0.50;;;;;;;;;;5321270;26;20058;-79
2024/04/16 17:44:03;;;;;;;1.43;0.50;;;;;;;;;;5329333;26;20016;-77
2024/04/16 17:46:36;;;;;;;0.73;0.53;;;;;;;;;;5367639;21;20005;-77
2024/04/16 17:49:02;;;;;;;;;;;;;;;;;;5347354;26;20036;-77
2024/04/16 17:51:35;;;;;;;1.60;0.73;;;;;;;;;;5315993;26;19919;-78
2024/04/16 17:54:03;;;;;;;1.53;0.60;;;;;;;;;;5358722;21;20008;-78
2024/04/16 17:56:30;;;;;;;0.83;0.63;;;;;;;;;;5327897;26;20126;-77
2024/04/16 17:59:00;;;;;;;1.07;0.53;;;;;;;;;;5312006;26;20009;-78
2024/04/16 18:01:29;;;;;;;2.57;0.50;;;;;;;;;;5344848;26;19989;-77
2024/04/16 18:04:02;;;;;;;0.50;0.50;;;;;;;;;;5340470;26;20005;-78
2024/04/16 18:06:29;;;;;;;0.40;0.30;;;;;;;;;;5317480;26;20001;-78
2024/04/16 18:08:58;;;;;;;0.90;0.57;;;;;;;;;;5345897;26;20038;-78
2024/04/16 18:11:25;;;;;;;1.40;0.53;;;;;;;;;;5312657;26;19989;-78
2024/04/16 18:13:54;;;;;;;1.80;0.70;;;;;;;;;;5343370;26;19998;-77
2024/04/16 18:16:28;;;;;;;0.83;0.50;;;;;;;;;;5318473;26;20004;-78
2024/04/16 18:18:58;;;;;;;4.07;0.80;;;;;;;;;;5320099;26;20005;-79
2024/04/16 18:21:24;;;;;;;0.63;0.30;;;;;;;;;;5316227;26;19993;-79
2024/04/16 18:23:53;;;;;;;0.73;0.37;;;;;;;;;;5314212;26;19994;-79
2024/04/16 18:26:21;;;;;;;0.80;0.50;;;;;;;;;;5309831;26;20000;-78
2024/04/16 18:28:49;;;;;;;0.30;0.30;;;;;;;;;;5311805;26;19994;-77
2024/04/16 18:31:15;;;;;;;0.97;0.60;;;;;;;;;;5318623;26;20466;-79
2024/04/16 18:33:41;;;;;;;4.13;0.60;;;;;;;;;;5320377;26;20308;-77
2024/04/16 18:36:09;;;;;;;1.20;0.73;;;;;;;;;;5316593;26;20030;-78
2024/04/16 18:38:38;;;;;;;0.60;0.50;;;;;;;;;;5338538;26;19986;-76
2024/04/16 18:41:05;;;;;;;1.57;0.80;;;;;;;;;;5313254;26;20017;-79
2024/04/16 18:43:31;;;;;;;3.20;0.40;;;;;;;;;;5319094;26;19993;-78
2024/04/16 18:45:57;;;;;;;1.50;0.60;;;;;;;;;;5329073;26;19985;-78
2024/04/16 18:48:27;;;;;;;1.70;0.70;;;;;;;;;;5306224;26;20014;-78
2024/04/16 18:50:54;;;;;;;0.70;0.50;;;;;;;;;;5333605;26;19989;-78
2024/04/16 18:53:22;;;;;;;0.70;0.53;;;;;;;;;;5319305;26;19993;-80
2024/04/16 18:55:52;;;;;;;1.03;0.60;;;;;;;;;;5319973;26;20013;-79
2024/04/16 18:58:19;;;;;;;1.90;0.63;;;;;;;;;;5313473;26;19993;-79
2024/04/16 19:00:46;;;;;;;2.00;0.60;;;;;;;;;;5450089;21;20006;-79
2024/04/16 19:03:15;;;;;;;1.33;0.50;;;;;;;;;;5393579;26;19980;-78
2024/04/16 19:05:46;;;;;;;1.00;0.80;;;;;;;;;;5400348;26;19996;-78
2024/04/16 19:08:12;;;;;;;1.03;0.50;;;;;;;;;;5405013;26;20033;-78
2024/04/16 19:10:48;;;;;;;2.20;1.13;;;;;;;;;;5430618;26;20018;-77
2024/04/16 19:13:16;;;;;;;0.90;0.50;;;;;;;;;;5402129;26;20006;-78
2024/04/16 19:16:04;;;;;;;1.80;0.83;;;;;;;;;;5430433;26;19984;-79
2024/04/16 19:18:35;;;;;;;1.00;0.60;;;;;;;;;;5391304;26;19999;-79
2024/04/16 19:21:02;;;;;;;1.15;0.63;;;;;;;;;;5399168;26;19987;-78
2024/04/16 19:23:33;;;;;;;2.20;1.07;;;;;;;;;;5430995;26;19991;-79
2024/04/16 19:26:01;;;;;;;2.40;0.70;;;;;;;;;;5392742;26;19996;-77
2024/04/16 19:28:33;;;;;;;1.10;0.80;;;;;;;;;;5406604;26;20041;-77
2024/04/16 19:31:04;;;;;;;1.75;0.90;;;;;;;;;;5406848;26;20068;-78
2024/04/16 19:33:34;;;;;;;2.57;1.23;;;;;;;;;;5400813;26;19991;-77
2024/04/16 19:36:20;;;;;;;2.67;1.43;;;;;;;;;;5398647;26;19992;-79
2024/04/16 19:38:52;;;;;;;3.17;1.53;;;;;;;;;;5405056;26;20046;-79
2024/04/16 19:41:24;;;;;;;1.57;1.00;;;;;;;;;;5430939;26;20007;-79
2024/04/16 19:43:55;;;;;;;5.43;1.00;;;;;;;;;;5437749;26;20262;-79
2024/04/16 19:46:24;;;;;;;2.83;1.58;;;;;;;;;;5398046;26;19996;-80
2024/04/16 19:49:10;;;;;;;;;;;;;;;;;;;;;
2024/04/16 19:51:39;;;;;;;6.90;2.00;;;;;;;;;;5434458;26;19995;-79
2024/04/16 19:54:11;;;;;;;6.93;2.97;;;;;;;;;;5434922;26;19987;-79
2024/04/16 19:56:37;;;;;;;6.55;3.00;;;;;;;;;;5400400;26;19984;-80
2024/04/16 19:59:03;;;;;;;4.33;2.10;;;;;;;;;;5403219;26;19999;-79
2024/04/16 20:04:46;;;;;;;3.20;2.07;;;;;;;;;;5422278;26;20004;-79
2024/04/16 20:07:13;;;;;;;6.25;2.72;;;;;;;;;;5402266;26;20046;-79
2024/04/16 20:09:47;;;;;;;6.53;2.80;;;;;;;;;;5414939;26;19999;-79
2024/04/16 20:12:16;;;;;;;3.50;2.63;;;;;;;;;;5398092;26;20000;-79
2024/04/16 20:14:44;;;;;;;3.57;2.67;;;;;;;;;;5398590;26;20004;-80
2024/04/16 20:17:12;;;;;;;5.17;3.23;;;;;;;;;;5375008;21;20019;-80
2024/04/16 20:19:47;;;;;;;4.20;2.43;;;;;;;;;;5371322;26;19989;-79
2024/04/16 20:22:20;;;;;;;6.67;2.63;;;;;;;;;;5367583;26;19997;-78
2024/04/16 20:24:49;;;;;;;5.83;2.90;;;;;;;;;;5379982;26;20024;-78
2024/04/16 20:27:17;;;;;;;15.00;3.87;;;;;;;;;;5328759;21;20014;-79
2024/04/16 20:29:48;;;;;;;6.03;3.27;;;;;;;;;;5298130;26;21531;-79
2024/04/16 20:32:16;;;;;;;6.57;2.77;;;;;;;;;;5290187;26;20031;-79
2024/04/16 20:34:45;;;;;;;5.60;3.00;;;;;;;;;;5263933;26;20039;-78
2024/04/16 20:37:11;;;;;;;5.73;2.27;;;;;;;;;;5295927;26;20072;-78
2024/04/16 20:39:37;;;;;;;6.63;2.90;;;;;;;;;;5263559;26;20060;-79
2024/04/16 20:42:05;;;;;;;4.77;3.00;;;;;;;;;;5291885;26;20105;-78
2024/04/16 20:44:31;;;;;;;4.20;2.13;;;;;;;;;;5265020;26;20015;-78
2024/04/16 20:47:00;;;;;;;5.03;3.30;;;;;;;;;;5264317;26;19995;-78
2024/04/16 20:49:26;;;;;;;18.50;3.03;;;;;;;;;;5339457;21;20012;-79
2024/04/16 20:51:54;;;;;;;4.70;2.70;;;;;;;;;;5344676;26;19997;-76
2024/04/16 20:54:22;;;;;;;4.83;2.57;;;;;;;;;;5366099;26;19989;-77
2024/04/16 20:56:54;;;;;;;5.00;2.63;;;;;;;;;;5344772;26;20006;-77
2024/04/16 20:59:20;;;;;;;5.50;2.58;;;;;;;;;;5344956;26;20044;-77
2024/04/16 21:01:49;;;;;;;7.57;2.60;;;;;;;;;;5364347;26;19997;-77
2024/04/16 21:04:18;;;;;;;6.00;2.90;;;;;;;;;;5348903;26;20016;-76
2024/04/16 21:06:47;;;;;;;3.83;2.50;;;;;;;;;;5379279;26;20012;-77
2024/04/16 21:09:20;;;;;;;5.27;2.67;;;;;;;;;;5341822;26;20011;-77
2024/04/16 21:11:46;;;;;;;5.90;2.67;;;;;;;;;;5367048;26;19996;-76
2024/04/16 21:14:12;;;;;;;4.57;3.13;;;;;;;;;;5375020;26;19993;-76
2024/04/16 21:16:40;;;;;;;7.03;3.07;;;;;;;;;;5349524;26;20014;-75
2024/04/16 21:19:16;;;;;;;4.23;2.80;;;;;;;;;;5347900;26;19990;-75
2024/04/16 21:21:42;;;;;;;7.13;3.47;;;;;;;;;;5372879;26;20018;-77
2024/04/16 21:24:08;;;;;;;5.03;3.03;;;;;;;;;;5374091;26;20005;-77
2024/04/16 21:26:43;;;;;;;3.73;2.70;;;;;;;;;;5363596;26;20014;-76
2024/04/16 21:29:12;;;;;;;5.40;3.07;;;;;;;;;;5378794;26;20001;-76
2024/04/16 21:31:40;;;;;;;4.93;2.57;;;;;;;;;;5368717;26;20004;-77
2024/04/16 21:34:11;;;;;;;3.43;2.90;;;;;;;;;;5368592;26;20022;-76
2024/04/16 21:36:37;;;;;;;5.67;3.30;;;;;;;;;;5374841;26;20000;-78
2024/04/16 21:39:10;;;;;;;3.93;2.97;;;;;;;;;;5340804;26;20055;-75
2024/04/16 21:41:36;;;;;;;7.23;3.93;;;;;;;;;;5349943;26;19996;-78
2024/04/16 21:44:04;;;;;;;5.30;3.00;;;;;;;;;;5342810;26;20056;-78
2024/04/16 21:46:34;;;;;;;5.90;3.13;;;;;;;;;;5361453;26;19989;-77
2024/04/16 21:49:00;;;;;;;5.67;3.17;;;;;;;;;;5377675;26;19997;-76
2024/04/16 21:51:34;;;;;;;7.90;3.57;;;;;;;;;;5344406;26;19996;-76
2024/04/16 21:54:05;;;;;;;7.90;2.90;;;;;;;;;;5339076;26;20002;-75
2024/04/16 21:56:36;;;;;;;4.90;3.00;;;;;;;;;;5362799;26;20006;-75
2024/04/16 21:59:24;;;;;;;4.83;3.53;;;;;;;;;;5352129;26;20020;-76
2024/04/16 22:01:50;;;;;;;5.97;3.00;;;;;;;;;;5347954;26;19996;-75
2024/04/16 22:04:39;;;;;;;7.40;3.60;;;;;;;;;;5350738;26;19985;-75
2024/04/16 22:07:14;;;;;;;5.03;2.73;;;;;;;;;;5349464;26;19993;-75
2024/04/16 22:09:40;;;;;;;9.10;3.77;;;;;;;;;;5373549;26;19989;-75
2024/04/16 22:12:06;;;;;;;10.17;3.50;;;;;;;;;;5346893;26;20016;-75
2024/04/16 22:14:35;;;;;;;6.83;3.53;;;;;;;;;;5350022;26;19993;-74
2024/04/16 22:17:04;;;;;;;8.60;4.03;;;;;;;;;;5366370;26;20008;-75
2024/04/16 22:19:50;;;;;;;9.50;4.03;;;;;;;;;;5341140;26;20052;-75
2024/04/16 22:25:08;;;;;;;8.15;4.20;;;;;;;;;;5331418;26;20043;-75
2024/04/16 22:27:34;;;;;;;4.17;2.97;;;;;;;;;;5349127;26;20013;-74
2024/04/16 22:30:00;;;;;;;8.47;3.90;;;;;;;;;;5363901;26;20060;-75
2024/04/16 22:32:27;;;;;;;8.33;4.60;;;;;;;;;;5375360;26;20017;-75
2024/04/16 22:34:53;;;;;;;7.93;4.17;;;;;;;;;;5349177;26;20016;-74
2024/04/16 22:37:19;;;;;;;9.17;4.50;;;;;;;;;;5346145;26;20013;-75
2024/04/16 22:39:45;;;;;;;7.77;4.33;;;;;;;;;;5344070;26;20001;-75
2024/04/16 22:42:11;;;;;;;7.30;4.33;;;;;;;;;;5377683;26;20035;-75
2024/04/16 22:44:37;;;;;;;8.43;4.03;;;;;;;;;;5361990;26;20005;-76
2024/04/16 22:47:03;;;;;;;11.67;5.07;;;;;;;;;;5374261;26;20004;-74
2024/04/16 22:49:29;;;;;;;13.03;5.17;;;;;;;;;;5369791;26;20173;-77
2024/04/16 22:51:57;;;;;;;7.60;4.93;;;;;;;;;;5345327;26;19997;-74
2024/04/16 22:54:23;;;;;;;12.37;4.90;;;;;;;;;;5367534;26;20006;-74
2024/04/16 22:56:49;;;;;;;9.27;5.13;;;;;;;;;;5365094;26;19994;-75
2024/04/16 22:59:18;;;;;;;10.87;5.50;;;;;;;;;;5376456;26;19993;-74
2024/04/16 23:01:44;;;;;;;10.93;5.03;;;;;;;;;;5345781;26;20001;-76
2024/04/16 23:04:10;;;;;;;16.43;4.97;;;;;;;;;;5377922;26;19993;-75
2024/04/16 23:06:36;;;;;;;10.93;4.77;;;;;;;;;;5364537;26;19994;-77
2024/04/16 23:09:02;;;;;;;9.27;4.70;;;;;;;;;;5330008;26;20004;-74
2024/04/16 23:11:28;;;;;;;8.03;4.27;;;;;;;;;;5351863;26;20137;-74
2024/04/16 23:13:56;;;;;;;13.23;4.10;;;;;;;;;;5350816;26;20038;-76
2024/04/16 23:16:22;;;;;;;12.50;4.37;;;;;;;;;;5352098;26;20013;-77
2024/04/16 23:18:48;;;;;;;10.13;4.43;;;;;;;;;;5348615;26;20056;-77
2024/04/16 23:21:14;;;;;;;10.80;4.57;;;;;;;;;;5351857;26;20006;-75
2024/04/16 23:23:40;;;;;;;10.17;3.83;;;;;;;;;;5325893;27;20017;-77
2024/04/16 23:26:08;;;;;;;10.93;4.70;;;;;;;;;;5348541;26;20045;-74
2024/04/16 23:28:34;;;;;;;14.40;4.03;;;;;;;;;;5322295;26;20041;-74
2024/04/16 23:31:02;;;;;;;12.77;4.23;;;;;;;;;;5345499;26;20100;-78
2024/04/16 23:33:28;;;;;;;8.53;3.87;;;;;;;;;;5346402;26;19989;-73
2024/04/16 23:35:54;;;;;;;7.87;3.93;;;;;;;;;;5321668;27;20370;-77
2024/04/16 23:38:20;;;;;;;6.77;3.03;;;;;;;;;;5326806;26;20001;-75
2024/04/16 23:40:47;;;;;;;18.37;3.90;;;;;;;;;;5352243;26;19993;-75
2024/04/16 23:43:13;;;;;;;14.33;3.57;;;;;;;;;;5344960;26;20005;-77
2024/04/16 23:45:39;;;;;;;8.83;3.67;;;;;;;;;;5339638;26;20005;-76
2024/04/16 23:48:07;;;;;;;9.40;3.00;;;;;;;;;;5358255;26;20060;-75
2024/04/16 23:50:33;;;;;;;6.27;2.70;;;;;;;;;;5368203;26;20013;-75
2024/04/16 23:52:59;;;;;;;12.00;3.10;;;;;;;;;;5342480;26;20002;-77
2024/04/16 23:55:25;;;;;;;7.43;2.60;;;;;;;;;;5363581;26;20362;-79
2024/04/16 23:57:51;;;;;;;7.27;3.33;;;;;;;;;;5349594;26;19993;-74
